Flat Creek, New York
Current Conditions -  °F | °C
As of 4:55 PM on Friday 28 Nov 2014 (Local Time) from KNY0 Reporting Station
Broken Clouds Broken Clouds  
Wind Chill: 10°   Ceiling: 3100
Heat Index: 22°   Visibility: 10mi
Dew Point: 15°   Wind: 12mph
Humidity: 76%   Direction: 270°W
Pressure: 30.15"   Gusts: 20mph
Location:  42.8548°N, 74.5942°W
Report Text: KNY0 282155Z AUTO 27010G17KT 10SM SCT022 BKN031 BKN038 M06/M09 A3015 RMK AO2 T10581095
Loading
Personal Weather Stations






























Interactive Weather Map New forecast layout! Learn more

10-Day Weather Forecast

Advertisements
Track Severe Weather on mobile